Time;durP1;ratioP1;P1;durP2;ratioP2;P2;SDS_P1;SDS_P2;PMS_P1;PMS_P2;Temp;Humidity;BMP_temperature;BMP_pressure;BME280_temperature;BME280_humidity;BME280_pressure;Samples;Min_cycle;Max_cycle;Signal;HPM_P1;HPM_P2
2023/10/27 00:02:06;;;;;;;;;;;;;;;9.49;100.00;99271.53;5013189;28;19932;-71
2023/10/27 00:04:31;;;;;;;;;;;;;;;9.52;100.00;99273.91;5018980;28;20417;-71
2023/10/27 00:06:56;;;;;;;;;;;;;;;9.57;100.00;99278.81;5013560;28;19925;-71
2023/10/27 00:09:22;;;;;;;;;;;;;;;9.54;100.00;99273.75;5018129;28;19952;-72
2023/10/27 00:11:47;;;;;;;;;;;;;;;9.56;100.00;99275.31;5017348;28;20659;-73
2023/10/27 00:14:12;;;;;;;;;;;;;;;9.55;100.00;99270.94;5027643;28;20360;-72
2023/10/27 00:16:37;;;;;;;;;;;;;;;9.56;100.00;99275.31;5015234;28;20402;-72
2023/10/27 00:19:02;;;;;;;;;;;;;;;9.55;100.00;99275.44;5006043;28;19931;-72
2023/10/27 00:21:28;;;;;;;;;;;;;;;9.56;100.00;99274.44;5016881;28;19963;-73
2023/10/27 00:23:53;;;;;;;;;;;;;;;9.58;100.00;99280.50;5010802;28;20424;-72
2023/10/27 00:26:18;;;;;;;;;;;;;;;9.55;100.00;99275.44;5015371;28;19932;-72
2023/10/27 00:28:45;;;;;;;;;;;;;;;9.56;100.00;99272.63;4997194;28;20192;-72
2023/10/27 00:31:11;;;;;;;;;;;;;;;9.53;100.00;99270.25;5015679;28;19927;-73
2023/10/27 00:33:36;;;;;;;;;;;;;;;9.55;100.00;99268.25;5010876;28;19933;-73
2023/10/27 00:36:01;;;;;;;;;;;;;;;9.56;100.00;99267.25;5030780;28;19948;-73
2023/10/27 00:38:26;;;;;;;;;;;;;;;9.55;100.00;99259.34;5011460;28;19925;-73
2023/10/27 00:40:52;;;;;;;;;;;;;;;9.55;100.00;99256.69;5014505;28;19924;-73
2023/10/27 00:43:17;;;;;;;;;;;;;;;9.53;100.00;99261.38;5012461;28;19924;-73
2023/10/27 00:45:43;;;;;;;;;;;;;;;9.53;100.00;99258.69;5017028;28;20038;-74
2023/10/27 00:48:08;;;;;;;;;;;;;;;9.53;100.00;99258.69;5029135;28;20099;-73
2023/10/27 00:50:34;;;;;;;;;;;;;;;9.57;100.00;99258.22;4998809;28;19925;-74
2023/10/27 00:52:59;;;;;;;;;;;;;;;9.55;100.00;99248.63;5010428;28;19928;-72
2023/10/27 00:55:24;;;;;;;;;;;;;;;9.52;100.00;99249.81;5004368;28;19921;-73
2023/10/27 00:57:49;;;;;;;;;;;;;;;9.53;100.00;99251.50;4993009;28;20485;-73
2023/10/27 01:00:15;;;;;;;;;;;;;;;9.57;100.00;99252.00;5010841;28;20380;-72
2023/10/27 01:02:40;;;;;;;;;;;;;;;9.55;100.00;99240.59;5005439;28;19925;-72
2023/10/27 01:05:05;;;;;;;;;;;;;;;9.56;100.00;99245.81;5012041;28;19921;-73
2023/10/27 01:07:31;;;;;;;;;;;;;;;9.53;100.00;99246.13;5022319;28;20592;-73
2023/10/27 01:09:56;;;;;;;;;;;;;;;9.56;100.00;99234.25;5008594;28;19917;-73
2023/10/27 01:12:21;;;;;;;;;;;;;;;9.55;100.00;99238.78;5009501;28;19925;-72
2023/10/27 01:14:46;;;;;;;;;;;;;;;9.57;100.00;99244.84;5012189;28;19956;-73
2023/10/27 01:17:12;;;;;;;;;;;;;;;9.56;100.00;99237.78;5010711;28;19921;-73
2023/10/27 01:19:37;;;;;;;;;;;;;;;9.58;100.00;99243.84;5012297;28;20039;-73
2023/10/27 01:22:03;;;;;;;;;;;;;;;9.58;100.00;99242.97;5011682;28;20622;-73
2023/10/27 01:24:28;;;;;;;;;;;;;;;9.58;100.00;99235.81;5010704;28;19931;-73
2023/10/27 01:26:55;;;;;;;;;;;;;;;9.58;100.00;99240.31;5009997;28;20344;-73
2023/10/27 01:29:22;;;;;;;;;;;;;;;9.58;100.00;99230.44;5007537;28;19925;-73
2023/10/27 01:31:47;;;;;;;;;;;;;;;9.60;100.00;99232.94;5010440;28;20383;-73
2023/10/27 01:34:13;;;;;;;;;;;;;;;9.59;100.00;99236.63;5007232;28;20134;-73
2023/10/27 01:36:38;;;;;;;;;;;;;;;9.58;100.00;99234.94;5013577;28;19928;-72
2023/10/27 01:39:03;;;;;;;;;;;;;;;9.60;100.00;99235.63;5009902;28;19931;-73
2023/10/27 01:41:28;;;;;;;;;;;;;;;9.60;100.00;99235.63;5014775;28;19928;-73
2023/10/27 01:43:53;;;;;;;;;;;;;;;9.59;100.00;99228.59;5021008;28;19920;-74
2023/10/27 01:46:19;;;;;;;;;;;;;;;9.62;100.00;99232.81;4998191;28;19925;-74
2023/10/27 01:48:44;;;;;;;;;;;;;;;9.64;100.00;99228.97;5012920;28;20015;-73
2023/10/27 01:51:09;;;;;;;;;;;;;;;9.63;100.00;99229.97;5028861;28;20016;-73
2023/10/27 01:53:34;;;;;;;;;;;;;;;9.63;100.00;99229.16;5014049;28;19929;-73
2023/10/27 01:55:59;;;;;;;;;;;;;;;9.61;100.00;99231.97;5032495;28;20403;-72
2023/10/27 01:58:27;;;;;;;;;;;;;;;9.62;100.00;99230.13;5015995;28;19925;-73
2023/10/27 02:00:52;;;;;;;;;;;;;;;9.60;100.00;99230.28;5026172;28;19917;-72
2023/10/27 02:03:18;;;;;;;;;;;;;;;9.45;100.00;99205.84;5010789;28;19921;-73
2023/10/27 02:05:43;;;;;;;;;;;;;;;9.62;100.00;99225.59;5009050;28;20288;-73
2023/10/27 02:08:08;;;;;;;;;;;;;;;9.62;100.00;99230.97;5013806;28;20042;-72
2023/10/27 02:10:34;;;;;;;;;;;;;;;9.62;100.00;99225.59;5029196;28;19951;-72
2023/10/27 02:12:59;;;;;;;;;;;;;;;9.50;100.00;99205.41;4997757;28;20004;-73
2023/10/27 02:15:24;;;;;;;;;;;;;;;9.65;100.00;99225.31;5017010;28;19925;-73
2023/10/27 02:17:49;;;;;;;;;;;;;;;9.66;100.00;99221.63;5008734;28;19917;-73
2023/10/27 02:20:14;;;;;;;;;;;;;;;9.66;100.00;99221.63;4994426;28;21179;-72
2023/10/27 02:22:40;;;;;;;;;;;;;;;9.69;100.00;99213.28;5013358;28;19925;-73
2023/10/27 02:25:05;;;;;;;;;;;;;;;9.71;100.00;99215.81;5014812;28;20308;-73
2023/10/27 02:27:31;;;;;;;;;;;;;;;9.73;100.00;99216.50;5016196;28;20507;-73
2023/10/27 02:29:56;;;;;;;;;;;;;;;9.73;100.00;99216.50;5015885;28;19960;-73
2023/10/27 02:32:22;;;;;;;;;;;;;;;9.75;100.00;99204.63;5014682;28;20443;-73
2023/10/27 02:34:47;;;;;;;;;;;;;;;9.76;100.00;99205.47;5027903;28;20474;-73
2023/10/27 02:37:12;;;;;;;;;;;;;;;9.79;100.00;99215.88;5014987;28;20353;-74
2023/10/27 02:39:37;;;;;;;;;;;;;;;9.82;100.00;99207.53;5014279;28;19967;-74
2023/10/27 02:42:03;;;;;;;;;;;;;;;9.85;100.00;99204.56;5000434;28;19981;-73
2023/10/27 02:44:28;;;;;;;;;;;;;;;9.87;100.00;99204.38;5015742;28;20350;-74
2023/10/27 02:46:53;;;;;;;;;;;;;;;9.86;100.00;99197.34;5017429;28;20071;-74
2023/10/27 02:49:18;;;;;;;;;;;;;;;9.92;100.00;99201.25;5014959;28;19947;-73
2023/10/27 02:51:43;;;;;;;;;;;;;;;9.92;100.00;99199.41;5016084;28;19921;-74
2023/10/27 02:54:09;;;;;;;;;;;;;;;9.96;100.00;99202.59;5010716;28;19969;-73
2023/10/27 02:56:35;;;;;;;;;;;;;;;9.97;100.00;99199.78;5015612;28;19921;-73
2023/10/27 02:59:00;;;;;;;;;;;;;;;9.97;100.00;99197.09;5013597;28;19917;-72
2023/10/27 03:01:25;;;;;;;;;;;;;;;9.96;100.00;99191.88;5010383;28;20441;-73
2023/10/27 03:03:50;;;;;;;;;;;;;;;9.93;100.00;99193.03;5012359;28;19929;-74
2023/10/27 03:06:16;;;;;;;;;;;;;;;9.95;100.00;99187.50;5012801;28;19921;-73
2023/10/27 03:08:41;;;;;;;;;;;;;;;9.95;100.00;99188.38;5009512;28;19921;-73
2023/10/27 03:11:08;;;;;;;;;;;;;;;9.95;100.00;99182.16;5010995;28;20421;-73
2023/10/27 03:13:33;;;;;;;;;;;;;;;9.91;100.00;99178.94;5008065;28;19939;-73
2023/10/27 03:15:59;;;;;;;;;;;;;;;9.93;100.00;99176.13;5012652;28;19925;-73
2023/10/27 03:18:24;;;;;;;;;;;;;;;9.92;100.00;99186.00;5006434;28;20375;-74
2023/10/27 03:20:56;;;;;;;;;;;;;;;9.90;100.00;99180.81;5010377;28;20080;-73
2023/10/27 03:23:24;;;;;;;;;;;;;;;9.94;100.00;99185.81;5008735;28;20252;-73
2023/10/27 03:25:50;;;;;;;;;;;;;;;9.96;100.00;99184.69;5010545;28;20561;-73
2023/10/27 03:28:15;;;;;;;;;;;;;;;9.98;100.00;99184.53;5024422;28;20013;-73
2023/10/27 03:30:41;;;;;;;;;;;;;;;9.99;100.00;99179.03;5011186;28;19925;-74
2023/10/27 03:33:06;;;;;;;;;;;;;;;9.97;100.00;99178.34;5008894;28;19925;-74
2023/10/27 03:35:31;;;;;;;;;;;;;;;9.96;100.00;99184.69;5013538;28;20328;-73
2023/10/27 03:37:56;;;;;;;;;;;;;;;9.97;100.00;99175.66;5010927;28;19956;-73
2023/10/27 03:40:22;;;;;;;;;;;;;;;9.94;100.00;99178.63;5008928;28;20008;-73
2023/10/27 03:42:47;;;;;;;;;;;;;;;9.96;100.00;99179.31;5012264;28;19928;-73
2023/10/27 03:45:12;;;;;;;;;;;;;;;9.97;100.00;99174.78;5012665;28;19996;-74
2023/10/27 03:47:37;;;;;;;;;;;;;;;9.97;100.00;99164.94;5009836;28;20024;-74
2023/10/27 03:50:03;;;;;;;;;;;;;;;9.99;100.00;99173.66;5009699;28;19925;-74
2023/10/27 03:52:28;;;;;;;;;;;;;;;10.00;100.00;99172.66;5009227;28;19961;-73
2023/10/27 03:54:54;;;;;;;;;;;;;;;10.01;100.00;99163.63;5011025;28;20322;-74
2023/10/27 03:57:19;;;;;;;;;;;;;;;9.99;100.00;99170.97;5010107;28;20628;-74
2023/10/27 03:59:46;;;;;;;;;;;;;;;9.99;100.00;99165.63;5008114;28;19927;-74
2023/10/27 04:02:11;;;;;;;;;;;;;;;10.01;100.00;99170.81;5026103;28;20375;-75
2023/10/27 04:04:36;;;;;;;;;;;;;;;10.02;100.00;99162.63;5008620;28;20022;-74
2023/10/27 04:07:02;;;;;;;;;;;;;;;10.03;100.00;99164.31;5005757;28;19964;-74
2023/10/27 04:09:27;;;;;;;;;;;;;;;10.02;100.00;99153.72;5008548;28;19921;-74
2023/10/27 04:11:52;;;;;;;;;;;;;;;9.99;100.00;99157.56;5008561;28;19951;-74
2023/10/27 04:14:18;;;;;;;;;;;;;;;9.97;100.00;99164.06;5026344;28;19925;-73
2023/10/27 04:16:43;;;;;;;;;;;;;;;9.97;100.00;99156.88;5006678;28;19931;-74
2023/10/27 04:19:08;;;;;;;;;;;;;;;9.95;100.00;99158.88;5009974;28;19924;-74
2023/10/27 04:21:33;;;;;;;;;;;;;;;9.94;100.00;99154.50;5007283;28;19929;-75
2023/10/27 04:23:58;;;;;;;;;;;;;;;9.93;100.00;99162.72;4995014;28;19921;-74
2023/10/27 04:26:24;;;;;;;;;;;;;;;9.88;100.00;99155.13;5025012;28;19963;-74
2023/10/27 04:28:49;;;;;;;;;;;;;;;9.88;100.00;99156.00;5008384;28;19984;-73
2023/10/27 04:31:14;;;;;;;;;;;;;;;9.87;100.00;99169.53;5024143;28;20502;-74
2023/10/27 04:33:39;;;;;;;;;;;;;;;9.88;100.00;99161.34;5008370;28;19921;-74
2023/10/27 04:36:05;;;;;;;;;;;;;;;9.89;100.00;99162.19;4994369;28;19917;-73
2023/10/27 04:38:30;;;;;;;;;;;;;;;9.91;100.00;99162.88;5009253;28;20311;-73
2023/10/27 04:40:55;;;;;;;;;;;;;;;9.86;100.00;99163.34;5005697;28;20806;-74
2023/10/27 04:43:21;;;;;;;;;;;;;;;9.86;100.00;99157.13;5008363;28;19925;-75
2023/10/27 04:45:46;;;;;;;;;;;;;;;9.86;100.00;99163.34;5010073;28;19921;-74
2023/10/27 04:48:11;;;;;;;;;;;;;;;9.84;100.00;99165.34;5007989;28;20380;-73
2023/10/27 04:50:36;;;;;;;;;;;;;;;9.83;100.00;99168.16;5008658;28;19956;-74
2023/10/27 04:53:02;;;;;;;;;;;;;;;9.80;100.00;99163.97;5007813;28;20197;-74
2023/10/27 04:55:27;;;;;;;;;;;;;;;9.67;100.00;99147.44;5009066;28;20588;-73
2023/10/27 04:57:52;;;;;;;;;;;;;;;9.75;100.00;99167.13;4994947;28;19948;-73
2023/10/27 05:00:17;;;;;;;;;;;;;;;9.77;100.00;99175.00;5008832;28;20007;-74
2023/10/27 05:02:42;;;;;;;;;;;;;;;9.74;100.00;99164.56;5024643;28;19968;-74
2023/10/27 05:05:08;;;;;;;;;;;;;;;9.75;100.00;99163.56;5008359;28;19927;-74
2023/10/27 05:07:34;;;;;;;;;;;;;;;9.74;100.00;99161.91;5005378;28;19943;-75
2023/10/27 05:09:59;;;;;;;;;;;;;;;9.74;100.00;99160.06;5007978;28;19921;-74
2023/10/27 05:12:24;;;;;;;;;;;;;;;9.77;100.00;99163.44;5009090;28;19924;-74
2023/10/27 05:14:49;;;;;;;;;;;;;;;9.78;100.00;99160.59;4991047;28;20501;-74
2023/10/27 05:17:15;;;;;;;;;;;;;;;9.80;100.00;99160.44;5029833;28;19921;-74
2023/10/27 05:19:40;;;;;;;;;;;;;;;9.80;100.00;99166.63;5013930;28;19968;-74
2023/10/27 05:22:05;;;;;;;;;;;;;;;9.84;100.00;99159.13;4996883;28;20032;-74
2023/10/27 05:24:34;;;;;;;;;;;;;;;9.85;100.00;99156.31;5012678;28;19968;-74
2023/10/27 05:26:59;;;;;;;;;;;;;;;9.89;100.00;99156.81;5008934;28;19921;-74
2023/10/27 05:29:26;;;;;;;;;;;;;;;9.92;100.00;99155.69;5011517;28;19921;-75
2023/10/27 05:31:51;;;;;;;;;;;;;;;9.94;100.00;99153.66;5008629;28;19925;-74
2023/10/27 05:34:16;;;;;;;;;;;;;;;9.96;100.00;99155.19;5013533;28;19975;-74
2023/10/27 05:36:41;;;;;;;;;;;;;;;9.96;100.00;99151.66;5012593;28;20019;-74
2023/10/27 05:39:07;;;;;;;;;;;;;;;9.96;100.00;99155.19;5011587;28;19978;-74
2023/10/27 05:41:32;;;;;;;;;;;;;;;9.95;100.00;99149.97;5025378;28;19937;-75
2023/10/27 05:43:57;;;;;;;;;;;;;;;9.97;100.00;99154.19;5000121;28;20160;-74
2023/10/27 05:46:22;;;;;;;;;;;;;;;9.98;100.00;99145.16;5017976;28;19932;-74
2023/10/27 05:48:47;;;;;;;;;;;;;;;9.99;100.00;99148.66;5014223;28;20067;-75
2023/10/27 05:51:13;;;;;;;;;;;;;;;10.01;100.00;99146.69;5014677;28;20020;-74
2023/10/27 05:53:38;;;;;;;;;;;;;;;10.02;100.00;99146.53;5001049;28;19925;-74
2023/10/27 05:56:03;;;;;;;;;;;;;;;10.01;100.00;99139.50;5000981;28;19925;-74
2023/10/27 05:58:32;;;;;;;;;;;;;;;10.01;100.00;99141.31;5013640;28;19917;-75
2023/10/27 06:00:58;;;;;;;;;;;;;;;10.00;100.00;99137.81;5009736;28;20374;-74
2023/10/27 06:03:23;;;;;;;;;;;;;;;9.99;100.00;99138.81;4995344;28;19925;-75
2023/10/27 06:05:48;;;;;;;;;;;;;;;9.98;100.00;99142.47;5010381;28;19928;-74
2023/10/27 06:08:14;;;;;;;;;;;;;;;9.98;100.00;99141.63;5011794;28;20078;-74
2023/10/27 06:10:40;;;;;;;;;;;;;;;9.98;100.00;99141.63;4997048;28;20399;-75
2023/10/27 06:13:05;;;;;;;;;;;;;;;9.95;100.00;99141.94;5011802;28;20304;-75
2023/10/27 06:15:30;;;;;;;;;;;;;;;9.81;100.00;99127.25;5010906;28;20307;-74
2023/10/27 06:17:55;;;;;;;;;;;;;;;9.95;100.00;99141.94;5012429;28;19921;-74
2023/10/27 06:20:22;;;;;;;;;;;;;;;9.93;100.00;99143.97;5009464;28;19972;-74
2023/10/27 06:22:47;;;;;;;;;;;;;;;9.94;100.00;99145.63;5009598;28;19957;-74
2023/10/27 06:25:12;;;;;;;;;;;;;;;9.94;100.00;99143.78;5010943;28;20340;-74
2023/10/27 06:27:37;;;;;;;;;;;;;;;9.97;100.00;99145.31;4993444;28;20584;-74
2023/10/27 06:30:03;;;;;;;;;;;;;;;9.93;100.00;99144.78;5011821;28;19991;-74
2023/10/27 06:32:29;;;;;;;;;;;;;;;9.94;100.00;99153.66;5012557;28;20376;-74
2023/10/27 06:34:54;;;;;;;;;;;;;;;9.93;100.00;99149.31;5009436;28;19935;-74
2023/10/27 06:37:19;;;;;;;;;;;;;;;9.90;100.00;99153.13;5021546;28;19947;-74
2023/10/27 06:39:44;;;;;;;;;;;;;;;9.93;100.00;99143.97;4991070;28;19971;-74
2023/10/27 06:42:10;;;;;;;;;;;;;;;9.92;100.00;99147.63;5007039;28;20089;-74
2023/10/27 06:44:35;;;;;;;;;;;;;;;9.90;100.00;99142.41;5013487;28;20402;-74
2023/10/27 06:47:00;;;;;;;;;;;;;;;9.88;100.00;99141.72;5011578;28;19954;-75
2023/10/27 06:49:25;;;;;;;;;;;;;;;9.94;100.00;99145.63;4999188;28;19924;-74
2023/10/27 06:51:51;;;;;;;;;;;;;;;9.90;100.00;99147.78;4996846;28;19948;-74
2023/10/27 06:54:16;;;;;;;;;;;;;;;9.84;100.00;99146.56;5009791;28;20355;-74
2023/10/27 06:56:42;;;;;;;;;;;;;;;9.83;100.00;99144.88;5027665;28;19959;-74
2023/10/27 06:59:08;;;;;;;;;;;;;;;9.84;100.00;99151.06;5010180;28;19967;-75
2023/10/27 07:01:33;;;;;;;;;;;;;;;9.79;100.00;99148.88;5008866;28;20274;-74
2023/10/27 07:03:58;;;;;;;;;;;;;;;9.81;100.00;99148.72;4996652;28;20312;-74
2023/10/27 07:06:24;;;;;;;;;;;;;;;9.81;100.00;99154.06;5011304;28;20224;-74
2023/10/27 07:08:49;;;;;;;;;;;;;;;9.81;100.00;99154.06;5007256;28;19921;-75
2023/10/27 07:11:14;;;;;;;;;;;;;;;9.82;100.00;99153.06;4997213;28;19972;-75
2023/10/27 07:13:40;;;;;;;;;;;;;;;9.80;100.00;99163.97;4996587;28;19944;-75
2023/10/27 07:16:05;;;;;;;;;;;;;;;9.83;100.00;99165.47;4994718;28;19928;-75
2023/10/27 07:18:30;;;;;;;;;;;;;;;9.73;100.00;99145.00;5025824;28;19932;-74
2023/10/27 07:20:55;;;;;;;;;;;;;;;9.88;100.00;99164.03;5009552;28;20281;-75
2023/10/27 07:23:21;;;;;;;;;;;;;;;9.90;100.00;99175.44;4993007;28;19925;-75
2023/10/27 07:25:46;;;;;;;;;;;;;;;9.91;100.00;99173.59;5009202;28;20040;-74
2023/10/27 07:28:12;;;;;;;;;;;;;;;9.90;100.00;99171.91;5010398;28;19967;-74
2023/10/27 07:30:38;;;;;;;;;;;;;;;9.93;100.00;99186.84;5025813;28;20255;-75
2023/10/27 07:33:04;;;;;;;;;;;;;;;9.95;100.00;99176.78;5007289;28;19928;-74
2023/10/27 07:35:31;;;;;;;;;;;;;;;9.95;100.00;99182.16;5009463;28;19921;-75
2023/10/27 07:37:56;;;;;;;;;;;;;;;9.89;100.00;99179.13;5024245;28;19967;-76
2023/10/27 07:40:21;;;;;;;;;;;;;;;9.93;100.00;99179.63;5011716;28;19936;-75
2023/10/27 07:42:46;;;;;;;;;;;;;;;9.93;100.00;99176.97;5008392;28;19920;-74
2023/10/27 07:45:12;;;;;;;;;;;;;;;9.95;100.00;99176.78;5026250;28;19921;-75
2023/10/27 07:47:37;;;;;;;;;;;;;;;9.95;100.00;99176.78;4998880;28;19921;-75
2023/10/27 07:50:05;;;;;;;;;;;;;;;9.95;100.00;99182.16;5010968;28;19921;-74
2023/10/27 07:52:31;;;;;;;;;;;;;;;9.96;100.00;99182.00;5008248;28;19921;-75
2023/10/27 07:54:56;;;;;;;;;;;;;;;9.98;100.00;99173.78;5006838;28;20322;-75
2023/10/27 07:57:21;;;;;;;;;;;;;;;10.00;100.00;99177.16;5024318;28;20363;-75
2023/10/27 07:59:46;;;;;;;;;;;;;;;10.01;100.00;99179.72;5022430;28;20315;-75
2023/10/27 08:02:12;;;;;;;;;;;;;;;10.02;100.00;99186.75;5011716;28;20454;-74
2023/10/27 08:04:37;;;;;;;;;;;;;;;10.01;100.00;99185.06;5020145;28;20454;-75
2023/10/27 08:07:03;;;;;;;;;;;;;;;10.08;100.00;99182.59;4993295;28;19921;-74
2023/10/27 08:09:29;;;;;;;;;;;;;;;10.10;100.00;99182.44;5009682;28;19964;-75
2023/10/27 08:11:55;;;;;;;;;;;;;;;10.10;100.00;99185.97;5009682;28;19925;-74
2023/10/27 08:14:20;;;;;;;;;;;;;;;10.09;100.00;99180.75;5024507;28;19929;-75
2023/10/27 08:16:45;;;;;;;;;;;;;;;10.07;100.00;99188.97;5026446;28;20014;-75
2023/10/27 08:19:10;;;;;;;;;;;;;;;10.08;100.00;99187.09;5006043;28;19983;-75
2023/10/27 08:21:36;;;;;;;;;;;;;;;10.13;100.00;99184.78;5008355;28;20134;-75
2023/10/27 08:24:01;;;;;;;;;;;;;;;10.14;100.00;99190.03;5005815;28;19959;-75
2023/10/27 08:26:26;;;;;;;;;;;;;;;10.01;100.00;99170.81;5011000;28;20457;-74
2023/10/27 08:28:51;;;;;;;;;;;;;;;10.12;100.00;99192.00;5024378;28;19921;-75
2023/10/27 08:31:17;;;;;;;;;;;;;;;10.13;100.00;99191.00;5022922;28;19932;-75
2023/10/27 08:33:42;;;;;;;;;;;;;;;10.14;100.00;99190.03;5008910;28;20770;-75
2023/10/27 08:36:07;;;;;;;;;;;;;;;10.12;100.00;99193.84;5010408;28;20466;-75
2023/10/27 08:38:32;;;;;;;;;;;;;;;10.11;100.00;99198.38;5025154;28;19964;-75
2023/10/27 08:40:58;;;;;;;;;;;;;;;10.14;100.00;99202.56;5009223;28;20312;-74
2023/10/27 08:43:23;;;;;;;;;;;;;;;10.13;100.00;99207.09;5008064;28;19927;-75
2023/10/27 08:45:49;;;;;;;;;;;;;;;10.11;100.00;99209.09;5026261;28;22515;-74
2023/10/27 08:48:14;;;;;;;;;;;;;;;10.07;100.00;99213.09;5007155;28;19928;-74
2023/10/27 08:50:40;;;;;;;;;;;;;;;10.06;100.00;99212.22;5005581;28;19954;-74
2023/10/27 08:53:07;;;;;;;;;;;;;;;10.06;100.00;99216.75;5011193;28;20406;-74
2023/10/27 08:55:32;;;;;;;;;;;;;;;10.08;100.00;99213.91;5010191;28;20153;-75
2023/10/27 08:57:57;;;;;;;;;;;;;;;10.07;100.00;99207.72;5008611;28;19925;-75
2023/10/27 09:00:22;;;;;;;;;;;;;;;10.02;100.00;99192.13;5008007;28;19924;-75
2023/10/27 09:02:48;;;;;;;;;;;;;;;10.25;100.00;99206.84;5006658;28;20016;-74
2023/10/27 09:05:14;;;;;;;;;;;;;;;10.30;100.00;99207.19;5009912;28;19925;-75
2023/10/27 09:07:39;;;;;;;;;;;;;;;10.29;100.00;99210.88;5009472;28;20375;-75
2023/10/27 09:10:07;;;;;;;;;;;;;;;10.32;100.00;99210.56;5012398;28;20410;-75
2023/10/27 09:12:36;;;;;;;;;;;;;;;10.39;100.00;99208.97;5010499;28;20269;-75
2023/10/27 09:15:05;;;;;;;;;;;;;;;10.49;100.00;99203.50;5009074;28;20020;-75
2023/10/27 09:17:30;;;;;;;;;;;;;;;10.56;100.00;99206.38;5008959;28;19925;-75
2023/10/27 09:20:03;;;;;;;;;;;;;;;10.56;100.00;99212.59;4990620;28;19921;-75
2023/10/27 09:22:28;;;;;;;;;;;;;;;10.52;100.00;99219.28;5010743;28;20167;-75
2023/10/27 09:24:53;;;;;;;;;;;;;;;10.46;100.00;99212.69;5012017;28;20160;-76
2023/10/27 09:27:25;;;;;;;;;;;;;;;10.44;100.00;99214.72;5011495;28;20003;-75
2023/10/27 09:29:51;;;;;;;;;;;;;;;10.42;100.00;99219.41;5014816;28;19929;-75
2023/10/27 09:32:25;;;;;;;;;;;;;;;10.36;100.00;99226.19;5003077;28;19948;-75
2023/10/27 09:35:09;;;;;;;;;;;;;;;10.32;100.00;99218.63;5011562;28;19948;-75
2023/10/27 09:37:37;;;;;;;;;;;;;;;10.39;100.00;99229.59;5008903;28;19925;-75
2023/10/27 09:40:04;;;;;;;;;;;;;;;10.46;100.00;99231.47;5011894;28;20385;-75
2023/10/27 09:42:29;;;;;;;;;;;;;;;10.46;100.00;99226.09;5003732;28;20368;-76
2023/10/27 09:44:58;;;;;;;;;;;;;;;10.45;100.00;99231.66;4993702;28;19935;-75
2023/10/27 09:47:27;;;;;;;;;;;;;;;10.46;100.00;99231.47;5021903;28;19937;-75
2023/10/27 09:49:54;;;;;;;;;;;;;;;10.57;100.00;99230.38;5009420;28;19928;-76
2023/10/27 09:52:20;;;;;;;;;;;;;;;10.54;100.00;99238.75;5010795;28;19968;-75
2023/10/27 09:54:45;;;;;;;;;;;;;;;10.48;100.00;99237.53;5011427;28;20015;-76
2023/10/27 09:57:10;;;;;;;;;;;;;;;10.57;100.00;99242.94;5011581;28;19925;-75
2023/10/27 09:59:36;;;;;;;;;;;;;;;10.49;100.00;99247.25;4991069;28;19945;-75
2023/10/27 10:02:05;;;;;;;;;;;;;;;10.49;100.00;99247.25;5002575;28;20015;-76
2023/10/27 10:04:49;;;;;;;;;;;;;;;10.56;100.00;99241.25;4990521;28;19921;-75
2023/10/27 10:07:26;;;;;;;;;;;;;;;10.52;100.00;99248.81;5007784;28;20207;-75
2023/10/27 10:09:51;;;;;;;;;;;;;;;10.64;100.00;99249.38;5022778;28;19933;-75
2023/10/27 10:12:17;;;;;;;;;;;;;;;10.73;100.00;99258.31;5023787;28;19922;-76
2023/10/27 10:14:46;;;;;;;;;;;;;;;10.76;100.00;99258.00;5021826;28;20159;-76
2023/10/27 10:17:11;;;;;;;;;;;;;;;10.82;100.00;99254.69;5002022;28;19968;-75
2023/10/27 10:19:46;;;;;;;;;;;;;;;10.93;100.00;99248.19;4995497;28;20118;-76
2023/10/27 10:22:31;;;;;;;;;;;;;;;11.05;100.00;99229.94;5002879;28;19936;-75
2023/10/27 10:25:15;;;;;;;;;;;;;;;11.16;100.00;99226.09;5007876;28;19921;-76
2023/10/27 10:27:59;;;;;;;;;;;;;;;11.17;100.00;99225.94;5004987;28;19933;-75
2023/10/27 10:30:24;;;;;;;;;;;;;;;11.22;100.00;99220.91;5014520;28;20003;-76
2023/10/27 10:32:49;;;;;;;;;;;;;;;11.24;100.00;99210.84;5011423;28;19924;-75
2023/10/27 10:35:19;;;;;;;;;;;;;;;11.28;100.00;99205.16;4991327;28;19967;-75
2023/10/27 10:37:44;;;;;;;;;;;;;;;11.24;100.00;99197.41;5006573;28;19921;-75
2023/10/27 10:40:16;;;;;;;;;;;;;;;11.25;100.00;99198.28;5012397;28;20452;-76
2023/10/27 10:43:01;;;;;;;;;;;;;;;11.24;100.00;99210.03;5010926;28;20382;-75
2023/10/27 10:45:26;;;;;;;;;;;;;;;11.31;100.00;99211.03;5016474;28;19921;-76
2023/10/27 10:47:55;;;;;;;;;;;;;;;11.29;100.00;99213.03;5011347;28;19943;-76
2023/10/27 10:50:27;;;;;;;;;;;;;;;11.26;100.00;99216.03;5015436;28;20352;-75
2023/10/27 10:53:09;;;;;;;;;;;;;;;11.23;100.00;99219.09;5007570;28;19959;-76
2023/10/27 10:55:34;;;;;;;;;;;;;;;11.22;100.00;99223.59;5006844;28;19983;-75
2023/10/27 10:57:59;;;;;;;;;;;;;;;10.93;100.00;99232.91;5014338;28;20040;-73
2023/10/27 11:00:32;;;;;;;;;;;;;;;10.84;100.00;99233.88;5010851;28;19925;-74
2023/10/27 11:03:07;;;;;;;;;;;;;;;10.70;100.00;99234.47;5009468;28;19959;-74
2023/10/27 11:05:32;;;;;;;;;;;;;;;10.60;100.00;99245.31;5019053;28;19921;-74
2023/10/27 11:07:58;;;;;;;;;;;;;;;10.58;100.00;99250.00;5009303;28;20909;-73
2023/10/27 11:10:23;;;;;;;;;;;;;;;10.57;100.00;99254.53;5014572;28;19944;-74
2023/10/27 11:12:49;;;;;;;;;;;;;;;10.58;100.00;99252.69;5029110;28;20051;-73
2023/10/27 11:15:33;;;;;;;;;;;;;;;10.49;100.00;99260.69;5020560;28;19939;-73
2023/10/27 11:18:07;;;;;;;;;;;;;;;10.52;100.00;99256.00;5013996;28;19921;-73
2023/10/27 11:20:33;;;;;;;;;;;;;;;10.47;100.00;99254.63;5008756;28;19929;-72
2023/10/27 11:23:11;;;;;;;;;;;;;;;10.52;100.00;99258.69;5010889;28;19921;-74
2023/10/27 11:25:36;;;;;;;;;;;;;;;10.52;100.00;99256.84;5015410;28;20383;-74
2023/10/27 11:28:16;;;;;;;;;;;;;;;10.53;100.00;99252.31;5010763;28;19917;-74
2023/10/27 11:30:42;;;;;;;;;;;;;;;10.54;100.00;99251.31;5011778;28;19969;-74
2023/10/27 11:33:08;;;;;;;;;;;;;;;10.49;100.00;99251.81;4994097;28;20040;-74
2023/10/27 11:35:34;;;;;;;;;;;;;;;10.53;100.00;99257.69;5010455;28;20291;-74
2023/10/27 11:38:02;;;;;;;;;;;;;;;10.52;100.00;99250.63;5008285;28;19917;-74
2023/10/27 11:40:27;;;;;;;;;;;;;;;10.42;100.00;99226.59;5010211;28;19921;-74
2023/10/27 11:42:52;;;;;;;;;;;;;;;10.50;100.00;99250.81;5009135;28;19967;-73
2023/10/27 11:45:17;;;;;;;;;;;;;;;10.48;100.00;99256.31;5024114;28;20416;-73
2023/10/27 11:47:43;;;;;;;;;;;;;;;10.43;100.00;99261.34;5010990;28;20011;-72
2023/10/27 11:50:09;;;;;;;;;;;;;;;10.42;100.00;99258.78;5013284;28;19927;-73
2023/10/27 11:52:34;;;;;;;;;;;;;;;10.40;100.00;99258.97;5011303;28;20837;-72
2023/10/27 11:55:00;;;;;;;;;;;;;;;10.30;100.00;99266.22;5014015;28;19925;-72
2023/10/27 11:57:25;;;;;;;;;;;;;;;10.30;100.00;99255.50;5011393;28;19925;-72
2023/10/27 11:59:50;;;;;;;;;;;;;;;10.28;100.00;99261.03;5015332;28;19963;-71
2023/10/27 12:02:15;;;;;;;;;;;;;;;10.16;100.00;99263.13;5014435;28;19925;-72
2023/10/27 12:04:41;;;;;;;;;;;;;;;10.12;100.00;99267.09;5025611;28;19921;-71
2023/10/27 12:07:06;;;;;;;;;;;;;;;10.12;100.00;99271.59;5007876;28;19921;-71
2023/10/27 12:09:31;;;;;;;;;;;;;;;10.07;100.00;99269.41;5013254;28;19920;-71
2023/10/27 12:11:56;;;;;;;;;;;;;;;10.07;100.00;99253.31;5011540;28;20040;-72
2023/10/27 12:14:23;;;;;;;;;;;;;;;10.04;100.00;99257.16;5014774;28;20269;-71
2023/10/27 12:16:48;;;;;;;;;;;;;;;9.97;100.00;99258.75;5011271;28;20004;-71
2023/10/27 12:19:13;;;;;;;;;;;;;;;9.92;100.00;99260.22;5010904;28;19924;-72
2023/10/27 12:21:38;;;;;;;;;;;;;;;9.89;100.00;99254.19;5011596;28;19925;-72
2023/10/27 12:24:04;;;;;;;;;;;;;;;9.90;100.00;99255.88;5023825;28;19924;-73
2023/10/27 12:26:29;;;;;;;;;;;;;;;9.92;100.00;99253.03;5009613;28;19921;-73
2023/10/27 12:28:54;;;;;;;;;;;;;;;9.93;100.00;99254.69;5009279;28;20043;-73
2023/10/27 12:31:19;;;;;;;;;;;;;;;9.99;100.00;99253.25;5011647;28;20039;-74
2023/10/27 12:33:45;;;;;;;;;;;;;;;10.00;100.00;99255.78;5014020;28;19935;-73
2023/10/27 12:36:10;;;;;;;;;;;;;;;10.04;100.00;99248.25;5012099;28;19929;-74
2023/10/27 12:38:36;;;;;;;;;;;;;;;10.10;100.00;99253.00;5005199;28;20035;-74